sensor_id;sensor_type;location;lat;lon;timestamp;pressure;altitude;pressure_sealevel;temperature;humidity
50242;BME280;36126;43.222;27.874;2023-04-09T00:01:53;101859.84;;;6.11;100.00
50242;BME280;36126;43.222;27.874;2023-04-09T00:04:18;101865.66;;;6.25;100.00
50242;BME280;36126;43.222;27.874;2023-04-09T00:06:44;101862.28;;;6.15;100.00
50242;BME280;36126;43.222;27.874;2023-04-09T00:09:09;101875.91;;;6.08;100.00
50242;BME280;36126;43.222;27.874;2023-04-09T00:11:35;101869.84;;;6.12;100.00
50242;BME280;36126;43.222;27.874;2023-04-09T00:14:00;101872.16;;;6.72;100.00
50242;BME280;36126;43.222;27.874;2023-04-09T00:16:26;101874.88;;;6.80;100.00
50242;BME280;36126;43.222;27.874;2023-04-09T00:18:51;101867.41;;;6.57;100.00
50242;BME280;36126;43.222;27.874;2023-04-09T00:21:16;101866.72;;;6.87;100.00
50242;BME280;36126;43.222;27.874;2023-04-09T00:23:42;101875.16;;;7.08;100.00
50242;BME280;36126;43.222;27.874;2023-04-09T00:26:08;101872.28;;;7.25;100.00
50242;BME280;36126;43.222;27.874;2023-04-09T00:28:33;101866.69;;;7.33;100.00
50242;BME280;36126;43.222;27.874;2023-04-09T00:31:00;101878.47;;;7.50;100.00
50242;BME280;36126;43.222;27.874;2023-04-09T00:33:25;101873.75;;;7.74;100.00
50242;BME280;36126;43.222;27.874;2023-04-09T00:35:51;101861.63;;;7.75;100.00
50242;BME280;36126;43.222;27.874;2023-04-09T00:38:16;101863.63;;;7.81;100.00
50242;BME280;36126;43.222;27.874;2023-04-09T00:40:42;101860.88;;;7.96;100.00
50242;BME280;36126;43.222;27.874;2023-04-09T00:43:07;101859.84;;;7.97;100.00
50242;BME280;36126;43.222;27.874;2023-04-09T00:45:33;101868.88;;;7.91;100.00
50242;BME280;36126;43.222;27.874;2023-04-09T00:47:58;101861.44;;;8.06;100.00
50242;BME280;36126;43.222;27.874;2023-04-09T00:50:24;101863.84;;;7.94;100.00
50242;BME280;36126;43.222;27.874;2023-04-09T00:52:50;101855.63;;;8.01;100.00
50242;BME280;36126;43.222;27.874;2023-04-09T00:55:16;101852.28;;;8.06;100.00
50242;BME280;36126;43.222;27.874;2023-04-09T00:57:42;101863.34;;;8.06;100.00
50242;BME280;36126;43.222;27.874;2023-04-09T01:00:07;101857.53;;;8.00;100.00
50242;BME280;36126;43.222;27.874;2023-04-09T01:02:35;101855.25;;;7.89;100.00
50242;BME280;36126;43.222;27.874;2023-04-09T01:05:01;101850.09;;;7.86;100.00
50242;BME280;36126;43.222;27.874;2023-04-09T01:12:21;101854.00;;;8.22;100.00
50242;BME280;36126;43.222;27.874;2023-04-09T01:14:59;101853.53;;;8.18;100.00
50242;BME280;36126;43.222;27.874;2023-04-09T01:17:32;101859.03;;;8.33;100.00
50242;BME280;36126;43.222;27.874;2023-04-09T01:20:42;101860.56;;;8.36;100.00
50242;BME280;36126;43.222;27.874;2023-04-09T01:22:51;101852.47;;;8.19;100.00
50242;BME280;36126;43.222;27.874;2023-04-09T01:30:36;101859.44;;;8.00;100.00
50242;BME280;36126;43.222;27.874;2023-04-09T01:33:02;101844.63;;;8.08;100.00
50242;BME280;36126;43.222;27.874;2023-04-09T01:35:30;101841.88;;;8.08;100.00
50242;BME280;36126;43.222;27.874;2023-04-09T01:37:55;101848.94;;;7.95;100.00
50242;BME280;36126;43.222;27.874;2023-04-09T01:40:21;101845.31;;;8.10;100.00
50242;BME280;36126;43.222;27.874;2023-04-09T01:42:46;101839.38;;;8.13;100.00
50242;BME280;36126;43.222;27.874;2023-04-09T01:45:12;101846.84;;;7.82;100.00
50242;BME280;36126;43.222;27.874;2023-04-09T01:47:39;101839.41;;;7.83;100.00
50242;BME280;36126;43.222;27.874;2023-04-09T01:50:04;101843.97;;;7.91;100.00
50242;BME280;36126;43.222;27.874;2023-04-09T01:52:30;101839.38;;;7.98;100.00
50242;BME280;36126;43.222;27.874;2023-04-09T01:54:56;101831.19;;;8.05;100.00
50242;BME280;36126;43.222;27.874;2023-04-09T01:57:21;101834.34;;;7.87;100.00
50242;BME280;36126;43.222;27.874;2023-04-09T01:59:47;101833.66;;;7.70;100.00
50242;BME280;36126;43.222;27.874;2023-04-09T02:02:16;101834.81;;;7.75;100.00
50242;BME280;36126;43.222;27.874;2023-04-09T02:04:45;101839.94;;;7.63;100.00
50242;BME280;36126;43.222;27.874;2023-04-09T02:07:21;101840.19;;;7.39;100.00
50242;BME280;36126;43.222;27.874;2023-04-09T02:09:49;101837.81;;;7.36;100.00
50242;BME280;36126;43.222;27.874;2023-04-09T02:12:17;101836.06;;;7.35;100.00
50242;BME280;36126;43.222;27.874;2023-04-09T02:14:46;101841.94;;;7.17;100.00
50242;BME280;36126;43.222;27.874;2023-04-09T02:17:17;101836.25;;;6.95;100.00
50242;BME280;36126;43.222;27.874;2023-04-09T02:19:44;101841.97;;;6.70;100.00
50242;BME280;36126;43.222;27.874;2023-04-09T02:22:09;101833.44;;;6.49;100.00
50242;BME280;36126;43.222;27.874;2023-04-09T02:24:35;101830.03;;;6.46;100.00
50242;BME280;36126;43.222;27.874;2023-04-09T02:27:01;101836.78;;;6.44;100.00
50242;BME280;36126;43.222;27.874;2023-04-09T02:29:26;101839.25;;;6.30;100.00
50242;BME280;36126;43.222;27.874;2023-04-09T02:31:52;101839.78;;;6.26;100.00
50242;BME280;36126;43.222;27.874;2023-04-09T02:34:17;101836.88;;;6.19;100.00
50242;BME280;36126;43.222;27.874;2023-04-09T02:36:43;101836.88;;;6.19;100.00
50242;BME280;36126;43.222;27.874;2023-04-09T02:39:08;101834.72;;;6.06;100.00
50242;BME280;36126;43.222;27.874;2023-04-09T02:41:34;101835.41;;;6.00;100.00
50242;BME280;36126;43.222;27.874;2023-04-09T02:43:59;101841.25;;;5.97;100.00
50242;BME280;36126;43.222;27.874;2023-04-09T02:46:25;101834.22;;;5.86;100.00
50242;BME280;36126;43.222;27.874;2023-04-09T02:48:50;101834.75;;;5.82;100.00
50242;BME280;36126;43.222;27.874;2023-04-09T02:51:15;101823.41;;;5.68;100.00
50242;BME280;36126;43.222;27.874;2023-04-09T02:53:41;101827.56;;;5.56;100.00
50242;BME280;36126;43.222;27.874;2023-04-09T02:56:06;101822.94;;;5.40;100.00
50242;BME280;36126;43.222;27.874;2023-04-09T02:58:32;101825.75;;;5.23;100.00
50242;BME280;36126;43.222;27.874;2023-04-09T03:00:57;101827.28;;;5.18;100.00
50242;BME280;36126;43.222;27.874;2023-04-09T03:03:23;101826.78;;;5.14;100.00
50242;BME280;36126;43.222;27.874;2023-04-09T03:05:48;101830.38;;;5.06;100.00
50242;BME280;36126;43.222;27.874;2023-04-09T03:08:13;101830.06;;;4.93;100.00
50242;BME280;36126;43.222;27.874;2023-04-09T03:10:39;101831.06;;;4.84;100.00
50242;BME280;36126;43.222;27.874;2023-04-09T03:13:04;101829.88;;;4.94;100.00
50242;BME280;36126;43.222;27.874;2023-04-09T03:15:30;101833.13;;;4.98;100.00
50242;BME280;36126;43.222;27.874;2023-04-09T03:17:55;101837.75;;;4.73;100.00
50242;BME280;36126;43.222;27.874;2023-04-09T03:20:21;101829.66;;;4.55;100.00
50242;BME280;36126;43.222;27.874;2023-04-09T03:22:46;101831.00;;;4.51;100.00
50242;BME280;36126;43.222;27.874;2023-04-09T03:25:12;101838.94;;;4.62;100.00
50242;BME280;36126;43.222;27.874;2023-04-09T03:27:37;101839.47;;;4.57;100.00
50242;BME280;36126;43.222;27.874;2023-04-09T03:30:02;101837.53;;;4.41;100.00
50242;BME280;36126;43.222;27.874;2023-04-09T03:32:28;101839.94;;;4.45;100.00
50242;BME280;36126;43.222;27.874;2023-04-09T03:34:53;101847.19;;;4.54;100.00
50242;BME280;36126;43.222;27.874;2023-04-09T03:37:19;101846.31;;;4.45;100.00
50242;BME280;36126;43.222;27.874;2023-04-09T03:39:44;101847.00;;;4.47;100.00
50242;BME280;36126;43.222;27.874;2023-04-09T03:42:10;101846.00;;;4.56;100.00
50242;BME280;36126;43.222;27.874;2023-04-09T03:44:35;101841.84;;;4.44;100.00
50242;BME280;36126;43.222;27.874;2023-04-09T03:47:00;101853.47;;;4.21;100.00
50242;BME280;36126;43.222;27.874;2023-04-09T03:49:27;101852.16;;;4.42;100.00
50242;BME280;36126;43.222;27.874;2023-04-09T03:51:52;101849.34;;;4.25;100.00
50242;BME280;36126;43.222;27.874;2023-04-09T03:54:18;101848.53;;;4.41;100.00
50242;BME280;36126;43.222;27.874;2023-04-09T03:56:43;101851.50;;;4.56;100.00
50242;BME280;36126;43.222;27.874;2023-04-09T03:59:08;101862.56;;;4.73;100.00
50242;BME280;36126;43.222;27.874;2023-04-09T04:01:34;101862.69;;;4.63;100.00
50242;BME280;36126;43.222;27.874;2023-04-09T04:04:00;101862.19;;;4.76;100.00
50242;BME280;36126;43.222;27.874;2023-04-09T04:06:25;101864.59;;;4.79;100.00
50242;BME280;36126;43.222;27.874;2023-04-09T04:08:51;101864.09;;;4.75;100.00
50242;BME280;36126;43.222;27.874;2023-04-09T04:11:17;101858.94;;;4.64;100.00
50242;BME280;36126;43.222;27.874;2023-04-09T04:13:43;101855.22;;;4.39;100.00
50242;BME280;36126;43.222;27.874;2023-04-09T04:16:08;101861.69;;;4.64;100.00
50242;BME280;36126;43.222;27.874;2023-04-09T04:18:34;101862.53;;;4.65;100.00
50242;BME280;36126;43.222;27.874;2023-04-09T04:21:00;101863.19;;;4.50;100.00
50242;BME280;36126;43.222;27.874;2023-04-09T04:23:25;101858.28;;;4.95;100.00
50242;BME280;36126;43.222;27.874;2023-04-09T04:25:51;101866.00;;;5.49;100.00
50242;BME280;36126;43.222;27.874;2023-04-09T04:28:17;101872.81;;;5.94;100.00
50242;BME280;36126;43.222;27.874;2023-04-09T04:30:42;101873.06;;;6.33;100.00
50242;BME280;36126;43.222;27.874;2023-04-09T04:33:08;101873.44;;;6.61;100.00
50242;BME280;36126;43.222;27.874;2023-04-09T04:35:33;101863.69;;;6.73;100.00
50242;BME280;36126;43.222;27.874;2023-04-09T04:37:59;101865.06;;;7.39;100.00
50242;BME280;36126;43.222;27.874;2023-04-09T04:40:25;101850.72;;;7.73;100.00
50242;BME280;36126;43.222;27.874;2023-04-09T04:42:51;101850.44;;;8.58;100.00
50242;BME280;36126;43.222;27.874;2023-04-09T04:45:16;101828.84;;;10.03;100.00
50242;BME280;36126;43.222;27.874;2023-04-09T04:47:41;101831.34;;;11.01;100.00
50242;BME280;36126;43.222;27.874;2023-04-09T04:50:07;101817.47;;;11.68;100.00
50242;BME280;36126;43.222;27.874;2023-04-09T04:52:33;101820.41;;;12.07;100.00
50242;BME280;36126;43.222;27.874;2023-04-09T04:54:58;101827.09;;;12.45;100.00
50242;BME280;36126;43.222;27.874;2023-04-09T04:57:23;101831.53;;;12.59;100.00
50242;BME280;36126;43.222;27.874;2023-04-09T04:59:49;101829.19;;;13.52;100.00
50242;BME280;36126;43.222;27.874;2023-04-09T05:02:14;101831.06;;;12.62;100.00
50242;BME280;36126;43.222;27.874;2023-04-09T05:04:40;101824.00;;;13.30;100.00
50242;BME280;36126;43.222;27.874;2023-04-09T05:07:05;101833.13;;;14.62;100.00
50242;BME280;36126;43.222;27.874;2023-04-09T05:09:30;101827.31;;;15.36;100.00
50242;BME280;36126;43.222;27.874;2023-04-09T05:11:56;101826.16;;;15.79;100.00
50242;BME280;36126;43.222;27.874;2023-04-09T05:14:22;101830.44;;;16.46;100.00
50242;BME280;36126;43.222;27.874;2023-04-09T05:16:48;101835.53;;;16.90;100.00
50242;BME280;36126;43.222;27.874;2023-04-09T05:19:13;101838.94;;;17.38;100.00
50242;BME280;36126;43.222;27.874;2023-04-09T05:21:38;101826.59;;;17.22;100.00
50242;BME280;36126;43.222;27.874;2023-04-09T05:24:04;101832.31;;;16.29;100.00
50242;BME280;36126;43.222;27.874;2023-04-09T05:26:30;101833.59;;;15.20;100.00
50242;BME280;36126;43.222;27.874;2023-04-09T05:28:55;101834.53;;;14.53;100.00
50242;BME280;36126;43.222;27.874;2023-04-09T05:31:21;101841.09;;;13.91;100.00
50242;BME280;36126;43.222;27.874;2023-04-09T05:33:46;101838.91;;;14.67;100.00
50242;BME280;36126;43.222;27.874;2023-04-09T05:36:15;101832.00;;;15.12;100.00
50242;BME280;36126;43.222;27.874;2023-04-09T05:38:45;101838.84;;;14.86;100.00
50242;BME280;36126;43.222;27.874;2023-04-09T05:41:11;101836.09;;;15.52;100.00
50242;BME280;36126;43.222;27.874;2023-04-09T05:43:38;101845.81;;;16.44;100.00
50242;BME280;36126;43.222;27.874;2023-04-09T05:46:04;101847.66;;;17.25;100.00
50242;BME280;36126;43.222;27.874;2023-04-09T05:48:29;101850.22;;;17.09;100.00
50242;BME280;36126;43.222;27.874;2023-04-09T05:50:55;101855.56;;;17.57;100.00
50242;BME280;36126;43.222;27.874;2023-04-09T05:53:20;101858.59;;;17.55;100.00
50242;BME280;36126;43.222;27.874;2023-04-09T05:55:46;101858.31;;;17.06;100.00
50242;BME280;36126;43.222;27.874;2023-04-09T05:58:13;101846.19;;;15.41;100.00
50242;BME280;36126;43.222;27.874;2023-04-09T06:00:40;101842.63;;;14.05;100.00
50242;BME280;36126;43.222;27.874;2023-04-09T06:03:07;101850.78;;;12.67;100.00
50242;BME280;36126;43.222;27.874;2023-04-09T06:05:32;101845.38;;;12.27;100.00
50242;BME280;36126;43.222;27.874;2023-04-09T06:07:58;101842.09;;;11.38;100.00
50242;BME280;36126;43.222;27.874;2023-04-09T06:10:23;101842.22;;;10.89;100.00
50242;BME280;36126;43.222;27.874;2023-04-09T06:12:49;101850.06;;;10.59;100.00
50242;BME280;36126;43.222;27.874;2023-04-09T06:15:14;101848.78;;;10.62;100.00
50242;BME280;36126;43.222;27.874;2023-04-09T06:17:40;101851.84;;;10.80;100.00
50242;BME280;36126;43.222;27.874;2023-04-09T06:20:06;101861.69;;;10.76;100.00
50242;BME280;36126;43.222;27.874;2023-04-09T06:25:35;101864.78;;;10.46;100.00
50242;BME280;36126;43.222;27.874;2023-04-09T06:28:01;101875.91;;;10.53;100.00
50242;BME280;36126;43.222;27.874;2023-04-09T06:30:27;101868.88;;;10.57;100.00
50242;BME280;36126;43.222;27.874;2023-04-09T06:32:53;101865.44;;;10.48;100.00
50242;BME280;36126;43.222;27.874;2023-04-09T06:35:18;101870.91;;;10.35;100.00
50242;BME280;36126;43.222;27.874;2023-04-09T06:37:47;101869.56;;;10.72;100.00
50242;BME280;36126;43.222;27.874;2023-04-09T06:43:17;101873.53;;;11.25;100.00
50242;BME280;36126;43.222;27.874;2023-04-09T06:45:43;101876.75;;;11.22;100.00
50242;BME280;36126;43.222;27.874;2023-04-09T06:48:08;101868.22;;;11.44;100.00
50242;BME280;36126;43.222;27.874;2023-04-09T06:50:34;101867.53;;;11.82;100.00
50242;BME280;36126;43.222;27.874;2023-04-09T06:53:01;101879.94;;;11.86;100.00
50242;BME280;36126;43.222;27.874;2023-04-09T06:55:28;101877.59;;;12.10;100.00
50242;BME280;36126;43.222;27.874;2023-04-09T06:57:56;101869.41;;;12.28;100.00
50242;BME280;36126;43.222;27.874;2023-04-09T07:00:22;101868.50;;;12.34;100.00
50242;BME280;36126;43.222;27.874;2023-04-09T07:02:47;101872.19;;;12.28;100.00
50242;BME280;36126;43.222;27.874;2023-04-09T07:05:13;101868.75;;;12.26;100.00
50242;BME280;36126;43.222;27.874;2023-04-09T07:07:38;101858.75;;;11.98;100.00
50242;BME280;36126;43.222;27.874;2023-04-09T07:10:04;101859.78;;;12.24;100.00
50242;BME280;36126;43.222;27.874;2023-04-09T07:12:31;101861.75;;;12.10;100.00
50242;BME280;36126;43.222;27.874;2023-04-09T07:14:59;101858.78;;;11.78;100.00
50242;BME280;36126;43.222;27.874;2023-04-09T07:17:25;101869.91;;;11.65;100.00
50242;BME280;36126;43.222;27.874;2023-04-09T07:19:50;101866.69;;;11.54;100.00
50242;BME280;36126;43.222;27.874;2023-04-09T07:22:16;101869.66;;;11.13;100.00
50242;BME280;36126;43.222;27.874;2023-04-09T07:24:42;101869.25;;;11.16;100.00
50242;BME280;36126;43.222;27.874;2023-04-09T07:27:07;101862.22;;;11.40;100.00
50242;BME280;36126;43.222;27.874;2023-04-09T07:29:34;101860.47;;;11.39;100.00
50242;BME280;36126;43.222;27.874;2023-04-09T07:31:59;101862.63;;;11.77;100.00
50242;BME280;36126;43.222;27.874;2023-04-09T07:34:26;101856.81;;;12.05;100.00
50242;BME280;36126;43.222;27.874;2023-04-09T07:36:52;101866.69;;;11.88;100.00
50242;BME280;36126;43.222;27.874;2023-04-09T07:39:18;101864.13;;;11.80;100.00
50242;BME280;36126;43.222;27.874;2023-04-09T07:41:45;101861.75;;;11.83;100.00
50242;BME280;36126;43.222;27.874;2023-04-09T07:44:11;101855.34;;;11.63;100.00
50242;BME280;36126;43.222;27.874;2023-04-09T07:46:37;101857.06;;;11.64;100.00
50242;BME280;36126;43.222;27.874;2023-04-09T07:49:03;101856.44;;;11.62;100.00
50242;BME280;36126;43.222;27.874;2023-04-09T07:51:30;101861.97;;;12.08;100.00
50242;BME280;36126;43.222;27.874;2023-04-09T07:53:56;101855.25;;;12.23;100.00
50242;BME280;36126;43.222;27.874;2023-04-09T07:56:21;101856.53;;;12.27;100.00
50242;BME280;36126;43.222;27.874;2023-04-09T07:58:47;101855.09;;;12.63;100.00
50242;BME280;36126;43.222;27.874;2023-04-09T08:01:13;101862.59;;;12.69;100.00
50242;BME280;36126;43.222;27.874;2023-04-09T08:03:39;101854.88;;;12.13;100.00
50242;BME280;36126;43.222;27.874;2023-04-09T08:06:05;101863.47;;;11.91;100.00
50242;BME280;36126;43.222;27.874;2023-04-09T08:08:31;101871.19;;;11.96;100.00
50242;BME280;36126;43.222;27.874;2023-04-09T08:10:56;101861.13;;;11.28;100.00
50242;BME280;36126;43.222;27.874;2023-04-09T08:13:23;101864.34;;;11.31;100.00
50242;BME280;36126;43.222;27.874;2023-04-09T08:15:53;101869.69;;;11.19;100.00
50242;BME280;36126;43.222;27.874;2023-04-09T08:18:19;101861.97;;;11.28;100.00
50242;BME280;36126;43.222;27.874;2023-04-09T08:20:45;101868.16;;;11.10;100.00
50242;BME280;36126;43.222;27.874;2023-04-09T08:23:10;101866.28;;;11.37;100.00
50242;BME280;36126;43.222;27.874;2023-04-09T08:25:36;101875.47;;;11.71;100.00
50242;BME280;36126;43.222;27.874;2023-04-09T08:28:01;101872.69;;;11.58;100.00
50242;BME280;36126;43.222;27.874;2023-04-09T08:30:27;101869.91;;;11.51;100.00
50242;BME280;36126;43.222;27.874;2023-04-09T08:32:52;101869.28;;;11.36;100.00
50242;BME280;36126;43.222;27.874;2023-04-09T08:35:18;101881.44;;;11.28;100.00
50242;BME280;36126;43.222;27.874;2023-04-09T08:37:43;101881.91;;;11.45;100.00
50242;BME280;36126;43.222;27.874;2023-04-09T08:40:09;101880.16;;;11.31;100.00
50242;BME280;36126;43.222;27.874;2023-04-09T08:42:35;101876.94;;;11.14;100.00
50242;BME280;36126;43.222;27.874;2023-04-09T08:45:03;101872.03;;;11.22;100.00
50242;BME280;36126;43.222;27.874;2023-04-09T08:47:30;101872.03;;;11.29;100.00
50242;BME280;36126;43.222;27.874;2023-04-09T08:49:56;101876.75;;;11.49;100.00
50242;BME280;36126;43.222;27.874;2023-04-09T08:52:31;101874.41;;;11.72;100.00
50242;BME280;36126;43.222;27.874;2023-04-09T08:54:57;101866.94;;;11.39;100.00
50242;BME280;36126;43.222;27.874;2023-04-09T08:57:22;101865.19;;;11.72;100.00
50242;BME280;36126;43.222;27.874;2023-04-09T08:59:48;101862.81;;;11.89;100.00
50242;BME280;36126;43.222;27.874;2023-04-09T09:02:16;101860.47;;;11.99;100.00
50242;BME280;36126;43.222;27.874;2023-04-09T09:04:43;101863.47;;;12.04;100.00
50242;BME280;36126;43.222;27.874;2023-04-09T09:07:10;101858.75;;;11.98;100.00
50242;BME280;36126;43.222;27.874;2023-04-09T09:09:49;101862.81;;;12.09;100.00
50242;BME280;36126;43.222;27.874;2023-04-09T09:12:29;101851.84;;;12.21;100.00
50242;BME280;36126;43.222;27.874;2023-04-09T09:14:55;101853.00;;;12.52;100.00
50242;BME280;36126;43.222;27.874;2023-04-09T09:17:20;101859.81;;;12.69;100.00
50242;BME280;36126;43.222;27.874;2023-04-09T09:19:45;101856.81;;;13.03;100.00
50242;BME280;36126;43.222;27.874;2023-04-09T09:22:11;101858.56;;;12.97;100.00
50242;BME280;36126;43.222;27.874;2023-04-09T09:24:50;101866.41;;;13.14;100.00
50242;BME280;36126;43.222;27.874;2023-04-09T09:27:32;101856.28;;;12.87;100.00
50242;BME280;36126;43.222;27.874;2023-04-09T09:29:58;101854.34;;;12.81;100.00
50242;BME280;36126;43.222;27.874;2023-04-09T09:32:23;101856.31;;;13.13;100.00
50242;BME280;36126;43.222;27.874;2023-04-09T09:35:02;101859.38;;;13.04;100.00
50242;BME280;36126;43.222;27.874;2023-04-09T09:37:28;101853.97;;;12.78;100.00
50242;BME280;36126;43.222;27.874;2023-04-09T09:39:55;101845.22;;;13.31;100.00
50242;BME280;36126;43.222;27.874;2023-04-09T09:42:20;101848.34;;;13.48;100.00
50242;BME280;36126;43.222;27.874;2023-04-09T09:44:46;101847.56;;;13.85;100.00
50242;BME280;36126;43.222;27.874;2023-04-09T09:47:12;101844.66;;;13.98;100.00
50242;BME280;36126;43.222;27.874;2023-04-09T09:49:38;101844.00;;;13.96;100.00
50242;BME280;36126;43.222;27.874;2023-04-09T09:52:07;101835.75;;;13.39;100.00
50242;BME280;36126;43.222;27.874;2023-04-09T09:54:41;101831.41;;;13.68;100.00
50242;BME280;36126;43.222;27.874;2023-04-09T09:57:09;101822.69;;;14.20;100.00
50242;BME280;36126;43.222;27.874;2023-04-09T09:59:39;101825.25;;;14.03;100.00
50242;BME280;36126;43.222;27.874;2023-04-09T10:02:10;101826.16;;;13.97;100.00
50242;BME280;36126;43.222;27.874;2023-04-09T10:04:42;101819.25;;;14.37;100.00
50242;BME280;36126;43.222;27.874;2023-04-09T10:07:09;101825.09;;;14.35;100.00
50242;BME280;36126;43.222;27.874;2023-04-09T10:09:38;101822.75;;;14.14;100.00
50242;BME280;36126;43.222;27.874;2023-04-09T10:12:05;101820.75;;;13.84;100.00
50242;BME280;36126;43.222;27.874;2023-04-09T10:14:31;101825.22;;;13.41;100.00
50242;BME280;36126;43.222;27.874;2023-04-09T10:16:58;101826.53;;;13.38;100.00
50242;BME280;36126;43.222;27.874;2023-04-09T10:19:24;101833.31;;;13.49;100.00
50242;BME280;36126;43.222;27.874;2023-04-09T10:22:02;101825.16;;;13.48;100.00
50242;BME280;36126;43.222;27.874;2023-04-09T10:24:31;101821.88;;;13.25;100.00
50242;BME280;36126;43.222;27.874;2023-04-09T10:27:08;101828.91;;;13.03;100.00
50242;BME280;36126;43.222;27.874;2023-04-09T10:29:33;101824.81;;;13.05;100.00
50242;BME280;36126;43.222;27.874;2023-04-09T10:32:03;101819.59;;;13.16;100.00
50242;BME280;36126;43.222;27.874;2023-04-09T10:34:31;101818.09;;;13.13;100.00
50242;BME280;36126;43.222;27.874;2023-04-09T10:36:59;101816.34;;;12.87;100.00
50242;BME280;36126;43.222;27.874;2023-04-09T10:39:31;101813.75;;;12.92;100.00
50242;BME280;36126;43.222;27.874;2023-04-09T10:42:03;101814.56;;;12.99;100.00
50242;BME280;36126;43.222;27.874;2023-04-09T10:44:31;101809.41;;;13.28;100.00
50242;BME280;36126;43.222;27.874;2023-04-09T10:46:59;101809.63;;;13.01;100.00
50242;BME280;36126;43.222;27.874;2023-04-09T10:49:25;101806.22;;;12.92;100.00
50242;BME280;36126;43.222;27.874;2023-04-09T10:52:07;101802.47;;;13.12;100.00
50242;BME280;36126;43.222;27.874;2023-04-09T11:01:59;101786.81;;;13.36;100.00
50242;BME280;36126;43.222;27.874;2023-04-09T11:04:28;101794.66;;;13.46;100.00
50242;BME280;36126;43.222;27.874;2023-04-09T11:06:57;101783.84;;;13.56;100.00
50242;BME280;36126;43.222;27.874;2023-04-09T11:09:24;101784.25;;;13.78;100.00
50242;BME280;36126;43.222;27.874;2023-04-09T11:11:53;101775.25;;;13.76;100.00
50242;BME280;36126;43.222;27.874;2023-04-09T11:14:19;101776.50;;;13.81;100.00
50242;BME280;36126;43.222;27.874;2023-04-09T11:16:46;101777.06;;;13.46;100.00
50242;BME280;36126;43.222;27.874;2023-04-09T11:19:12;101779.28;;;13.62;100.00
50242;BME280;36126;43.222;27.874;2023-04-09T11:21:40;101769.41;;;13.59;100.00
50242;BME280;36126;43.222;27.874;2023-04-09T11:24:13;101764.56;;;13.23;100.00
50242;BME280;36126;43.222;27.874;2023-04-09T11:26:40;101762.09;;;13.40;100.00
50242;BME280;36126;43.222;27.874;2023-04-09T11:29:07;101771.19;;;13.29;100.00
50242;BME280;36126;43.222;27.874;2023-04-09T11:31:34;101758.59;;;13.44;100.00
50242;BME280;36126;43.222;27.874;2023-04-09T11:34:00;101753.81;;;13.52;100.00
50242;BME280;36126;43.222;27.874;2023-04-09T11:36:25;101754.50;;;13.47;100.00
50242;BME280;36126;43.222;27.874;2023-04-09T11:38:52;101751.47;;;13.49;100.00
50242;BME280;36126;43.222;27.874;2023-04-09T11:41:31;101747.06;;;12.84;100.00
50242;BME280;36126;43.222;27.874;2023-04-09T11:43:57;101749.34;;;12.68;100.00
50242;BME280;36126;43.222;27.874;2023-04-09T11:46:22;101745.25;;;12.71;100.00
50242;BME280;36126;43.222;27.874;2023-04-09T11:48:50;101741.06;;;13.12;100.00
50242;BME280;36126;43.222;27.874;2023-04-09T11:51:17;101728.97;;;13.43;100.00
50242;BME280;36126;43.222;27.874;2023-04-09T11:53:43;101733.72;;;13.43;100.00
50242;BME280;36126;43.222;27.874;2023-04-09T11:56:09;101738.16;;;13.51;100.00
50242;BME280;36126;43.222;27.874;2023-04-09T11:58:35;101723.63;;;13.42;100.00
50242;BME280;36126;43.222;27.874;2023-04-09T12:01:00;101734.56;;;13.43;100.00
50242;BME280;36126;43.222;27.874;2023-04-09T12:03:27;101726.84;;;13.20;100.00
50242;BME280;36126;43.222;27.874;2023-04-09T12:05:53;101727.34;;;13.10;100.00
50242;BME280;36126;43.222;27.874;2023-04-09T12:08:21;101723.91;;;13.08;100.00
50242;BME280;36126;43.222;27.874;2023-04-09T12:10:47;101724.63;;;13.48;100.00
50242;BME280;36126;43.222;27.874;2023-04-09T12:13:13;101721.16;;;13.71;100.00
50242;BME280;36126;43.222;27.874;2023-04-09T12:15:40;101726.06;;;13.57;100.00
50242;BME280;36126;43.222;27.874;2023-04-09T12:18:08;101721.34;;;13.76;100.00
50242;BME280;36126;43.222;27.874;2023-04-09T12:20:41;101721.66;;;13.68;100.00
50242;BME280;36126;43.222;27.874;2023-04-09T12:23:08;101726.19;;;13.43;100.00
50242;BME280;36126;43.222;27.874;2023-04-09T12:25:35;101718.97;;;13.10;100.00
50242;BME280;36126;43.222;27.874;2023-04-09T12:28:02;101730.41;;;13.27;100.00
50242;BME280;36126;43.222;27.874;2023-04-09T12:30:27;101714.13;;;12.99;100.00
50242;BME280;36126;43.222;27.874;2023-04-09T12:32:53;101722.22;;;13.33;100.00
50242;BME280;36126;43.222;27.874;2023-04-09T12:35:20;101722.78;;;13.41;100.00
50242;BME280;36126;43.222;27.874;2023-04-09T12:37:45;101716.19;;;13.54;100.00
50242;BME280;36126;43.222;27.874;2023-04-09T12:40:11;101732.22;;;13.15;100.00
50242;BME280;36126;43.222;27.874;2023-04-09T12:42:40;101722.38;;;13.38;100.00
50242;BME280;36126;43.222;27.874;2023-04-09T12:45:06;101719.69;;;13.50;100.00
50242;BME280;36126;43.222;27.874;2023-04-09T12:47:32;101711.19;;;13.63;100.00
50242;BME280;36126;43.222;27.874;2023-04-09T12:49:58;101719.00;;;13.54;100.00
50242;BME280;36126;43.222;27.874;2023-04-09T12:52:23;101700.06;;;13.75;100.00
50242;BME280;36126;43.222;27.874;2023-04-09T12:54:50;101701.16;;;13.92;100.00